sensor_id;sensor_type;location;lat;lon;timestamp;P1;durP1;ratioP1;P2;durP2;ratioP2
6626;SDS011;3349;49.830;8.748;2022-10-29T00:01:51;18.80;;;6.28;;
6626;SDS011;3349;49.830;8.748;2022-10-29T00:04:18;19.80;;;6.30;;
6626;SDS011;3349;49.830;8.748;2022-10-29T00:06:46;20.55;;;5.85;;
6626;SDS011;3349;49.830;8.748;2022-10-29T00:09:14;16.48;;;6.43;;
6626;SDS011;3349;49.830;8.748;2022-10-29T00:11:41;9.85;;;6.15;;
6626;SDS011;3349;49.830;8.748;2022-10-29T00:14:07;16.70;;;6.15;;
6626;SDS011;3349;49.830;8.748;2022-10-29T00:16:35;13.70;;;5.60;;
6626;SDS011;3349;49.830;8.748;2022-10-29T00:19:05;18.73;;;5.85;;
6626;SDS011;3349;49.830;8.748;2022-10-29T00:21:33;12.27;;;6.20;;
6626;SDS011;3349;49.830;8.748;2022-10-29T00:24:02;15.20;;;6.07;;
6626;SDS011;3349;49.830;8.748;2022-10-29T00:26:30;13.68;;;6.25;;
6626;SDS011;3349;49.830;8.748;2022-10-29T00:28:57;17.00;;;6.80;;
6626;SDS011;3349;49.830;8.748;2022-10-29T00:31:24;14.82;;;6.68;;
6626;SDS011;3349;49.830;8.748;2022-10-29T00:33:51;16.63;;;6.88;;
6626;SDS011;3349;49.830;8.748;2022-10-29T00:36:21;18.17;;;6.85;;
6626;SDS011;3349;49.830;8.748;2022-10-29T00:38:49;17.83;;;6.63;;
6626;SDS011;3349;49.830;8.748;2022-10-29T00:41:16;13.98;;;6.78;;
6626;SDS011;3349;49.830;8.748;2022-10-29T00:43:47;16.08;;;6.60;;
6626;SDS011;3349;49.830;8.748;2022-10-29T00:46:15;13.23;;;6.55;;
6626;SDS011;3349;49.830;8.748;2022-10-29T00:48:47;18.77;;;7.45;;
6626;SDS011;3349;49.830;8.748;2022-10-29T00:51:17;13.40;;;6.05;;
6626;SDS011;3349;49.830;8.748;2022-10-29T00:53:45;13.15;;;6.35;;
6626;SDS011;3349;49.830;8.748;2022-10-29T00:56:16;17.77;;;6.28;;
6626;SDS011;3349;49.830;8.748;2022-10-29T00:58:43;16.98;;;7.07;;
6626;SDS011;3349;49.830;8.748;2022-10-29T01:01:11;14.60;;;6.60;;
6626;SDS011;3349;49.830;8.748;2022-10-29T01:03:39;13.07;;;6.75;;
6626;SDS011;3349;49.830;8.748;2022-10-29T01:06:06;12.32;;;6.18;;
6626;SDS011;3349;49.830;8.748;2022-10-29T01:08:33;14.45;;;7.10;;
6626;SDS011;3349;49.830;8.748;2022-10-29T01:11:02;20.33;;;6.75;;
6626;SDS011;3349;49.830;8.748;2022-10-29T01:16:26;20.70;;;7.00;;
6626;SDS011;3349;49.830;8.748;2022-10-29T01:19:00;20.65;;;6.95;;
6626;SDS011;3349;49.830;8.748;2022-10-29T01:21:36;18.85;;;7.07;;
6626;SDS011;3349;49.830;8.748;2022-10-29T01:27:15;14.35;;;6.18;;
6626;SDS011;3349;49.830;8.748;2022-10-29T01:30:08;20.95;;;7.00;;
6626;SDS011;3349;49.830;8.748;2022-10-29T01:32:45;16.23;;;6.55;;
6626;SDS011;3349;49.830;8.748;2022-10-29T01:35:30;15.80;;;7.20;;
6626;SDS011;3349;49.830;8.748;2022-10-29T01:38:07;16.48;;;6.93;;
6626;SDS011;3349;49.830;8.748;2022-10-29T01:40:39;17.45;;;6.85;;
6626;SDS011;3349;49.830;8.748;2022-10-29T01:43:16;15.38;;;6.60;;
6626;SDS011;3349;49.830;8.748;2022-10-29T01:45:49;10.82;;;6.93;;
6626;SDS011;3349;49.830;8.748;2022-10-29T01:48:23;20.33;;;7.53;;
6626;SDS011;3349;49.830;8.748;2022-10-29T01:50:56;15.98;;;7.10;;
6626;SDS011;3349;49.830;8.748;2022-10-29T01:53:25;11.40;;;7.20;;
6626;SDS011;3349;49.830;8.748;2022-10-29T01:55:54;18.58;;;7.10;;
6626;SDS011;3349;49.830;8.748;2022-10-29T01:58:22;16.67;;;7.60;;
6626;SDS011;3349;49.830;8.748;2022-10-29T02:00:52;12.57;;;6.82;;
6626;SDS011;3349;49.830;8.748;2022-10-29T02:03:30;15.02;;;7.28;;
6626;SDS011;3349;49.830;8.748;2022-10-29T02:06:03;16.73;;;6.70;;
6626;SDS011;3349;49.830;8.748;2022-10-29T02:08:38;14.20;;;6.68;;
6626;SDS011;3349;49.830;8.748;2022-10-29T02:11:14;16.42;;;6.88;;
6626;SDS011;3349;49.830;8.748;2022-10-29T02:13:48;11.90;;;6.80;;
6626;SDS011;3349;49.830;8.748;2022-10-29T02:16:20;16.92;;;7.50;;
6626;SDS011;3349;49.830;8.748;2022-10-29T02:18:50;14.90;;;7.43;;
6626;SDS011;3349;49.830;8.748;2022-10-29T02:21:18;12.35;;;7.32;;
6626;SDS011;3349;49.830;8.748;2022-10-29T02:23:45;12.32;;;6.90;;
6626;SDS011;3349;49.830;8.748;2022-10-29T02:26:12;10.25;;;7.00;;
6626;SDS011;3349;49.830;8.748;2022-10-29T02:28:40;14.25;;;6.70;;
6626;SDS011;3349;49.830;8.748;2022-10-29T02:31:07;17.35;;;6.53;;
6626;SDS011;3349;49.830;8.748;2022-10-29T02:33:33;13.90;;;7.07;;
6626;SDS011;3349;49.830;8.748;2022-10-29T02:36:02;14.55;;;6.30;;
6626;SDS011;3349;49.830;8.748;2022-10-29T02:38:29;16.15;;;6.68;;
6626;SDS011;3349;49.830;8.748;2022-10-29T02:40:56;14.35;;;6.80;;
6626;SDS011;3349;49.830;8.748;2022-10-29T02:43:22;16.05;;;6.82;;
6626;SDS011;3349;49.830;8.748;2022-10-29T02:45:49;15.65;;;6.25;;
6626;SDS011;3349;49.830;8.748;2022-10-29T02:48:22;19.65;;;7.05;;
6626;SDS011;3349;49.830;8.748;2022-10-29T02:50:48;17.30;;;7.55;;
6626;SDS011;3349;49.830;8.748;2022-10-29T02:53:16;17.45;;;8.18;;
6626;SDS011;3349;49.830;8.748;2022-10-29T02:55:43;12.02;;;7.35;;
6626;SDS011;3349;49.830;8.748;2022-10-29T02:58:10;18.42;;;7.25;;
6626;SDS011;3349;49.830;8.748;2022-10-29T03:00:37;16.65;;;7.10;;
6626;SDS011;3349;49.830;8.748;2022-10-29T03:03:03;15.13;;;6.53;;
6626;SDS011;3349;49.830;8.748;2022-10-29T03:05:30;12.68;;;6.60;;
6626;SDS011;3349;49.830;8.748;2022-10-29T03:07:57;14.05;;;7.05;;
6626;SDS011;3349;49.830;8.748;2022-10-29T03:10:25;15.07;;;7.85;;
6626;SDS011;3349;49.830;8.748;2022-10-29T03:12:51;13.90;;;7.32;;
6626;SDS011;3349;49.830;8.748;2022-10-29T03:15:18;17.38;;;7.10;;
6626;SDS011;3349;49.830;8.748;2022-10-29T03:17:45;15.88;;;7.80;;
6626;SDS011;3349;49.830;8.748;2022-10-29T03:20:11;12.85;;;7.20;;
6626;SDS011;3349;49.830;8.748;2022-10-29T03:22:38;19.92;;;7.32;;
6626;SDS011;3349;49.830;8.748;2022-10-29T03:25:05;18.42;;;7.40;;
6626;SDS011;3349;49.830;8.748;2022-10-29T03:27:38;11.07;;;7.43;;
6626;SDS011;3349;49.830;8.748;2022-10-29T03:30:06;14.38;;;7.28;;
6626;SDS011;3349;49.830;8.748;2022-10-29T03:32:34;12.82;;;6.72;;
6626;SDS011;3349;49.830;8.748;2022-10-29T03:35:05;16.63;;;7.35;;
6626;SDS011;3349;49.830;8.748;2022-10-29T03:37:32;18.65;;;7.15;;
6626;SDS011;3349;49.830;8.748;2022-10-29T03:39:59;14.25;;;7.03;;
6626;SDS011;3349;49.830;8.748;2022-10-29T03:42:25;25.88;;;7.07;;
6626;SDS011;3349;49.830;8.748;2022-10-29T03:44:56;15.75;;;7.22;;
6626;SDS011;3349;49.830;8.748;2022-10-29T03:47:23;14.90;;;6.63;;
6626;SDS011;3349;49.830;8.748;2022-10-29T03:49:50;15.73;;;7.00;;
6626;SDS011;3349;49.830;8.748;2022-10-29T03:52:16;16.30;;;7.18;;
6626;SDS011;3349;49.830;8.748;2022-10-29T03:54:43;17.27;;;7.53;;
6626;SDS011;3349;49.830;8.748;2022-10-29T03:57:10;12.02;;;6.80;;
6626;SDS011;3349;49.830;8.748;2022-10-29T03:59:37;12.82;;;6.88;;
6626;SDS011;3349;49.830;8.748;2022-10-29T04:02:05;14.68;;;7.00;;
6626;SDS011;3349;49.830;8.748;2022-10-29T04:04:32;11.88;;;6.72;;
6626;SDS011;3349;49.830;8.748;2022-10-29T04:06:58;12.95;;;6.63;;
6626;SDS011;3349;49.830;8.748;2022-10-29T04:09:25;21.08;;;7.50;;
6626;SDS011;3349;49.830;8.748;2022-10-29T04:11:52;16.63;;;6.72;;
6626;SDS011;3349;49.830;8.748;2022-10-29T04:14:18;17.98;;;7.30;;
6626;SDS011;3349;49.830;8.748;2022-10-29T04:16:45;14.10;;;6.93;;
6626;SDS011;3349;49.830;8.748;2022-10-29T04:19:13;18.83;;;7.70;;
6626;SDS011;3349;49.830;8.748;2022-10-29T04:21:40;16.98;;;6.75;;
6626;SDS011;3349;49.830;8.748;2022-10-29T04:24:07;16.33;;;7.60;;
6626;SDS011;3349;49.830;8.748;2022-10-29T04:26:33;20.40;;;7.57;;
6626;SDS011;3349;49.830;8.748;2022-10-29T04:29:00;15.27;;;7.10;;
6626;SDS011;3349;49.830;8.748;2022-10-29T04:31:27;14.77;;;7.05;;
6626;SDS011;3349;49.830;8.748;2022-10-29T04:33:54;13.55;;;7.40;;
6626;SDS011;3349;49.830;8.748;2022-10-29T04:36:23;21.42;;;7.63;;
6626;SDS011;3349;49.830;8.748;2022-10-29T04:38:49;13.60;;;7.70;;
6626;SDS011;3349;49.830;8.748;2022-10-29T04:41:16;14.65;;;7.88;;
6626;SDS011;3349;49.830;8.748;2022-10-29T04:43:43;17.38;;;8.13;;
6626;SDS011;3349;49.830;8.748;2022-10-29T04:46:09;15.25;;;7.55;;
6626;SDS011;3349;49.830;8.748;2022-10-29T04:48:36;16.67;;;8.55;;
6626;SDS011;3349;49.830;8.748;2022-10-29T04:51:03;15.65;;;7.97;;
6626;SDS011;3349;49.830;8.748;2022-10-29T04:53:31;16.20;;;7.30;;
6626;SDS011;3349;49.830;8.748;2022-10-29T04:55:58;15.48;;;7.78;;
6626;SDS011;3349;49.830;8.748;2022-10-29T04:58:26;18.23;;;7.57;;
6626;SDS011;3349;49.830;8.748;2022-10-29T05:00:53;15.18;;;7.18;;
6626;SDS011;3349;49.830;8.748;2022-10-29T05:03:25;15.95;;;7.88;;
6626;SDS011;3349;49.830;8.748;2022-10-29T05:05:52;14.15;;;7.35;;
6626;SDS011;3349;49.830;8.748;2022-10-29T05:08:19;16.05;;;7.25;;
6626;SDS011;3349;49.830;8.748;2022-10-29T05:10:47;12.27;;;7.05;;
6626;SDS011;3349;49.830;8.748;2022-10-29T05:13:13;16.35;;;8.00;;
6626;SDS011;3349;49.830;8.748;2022-10-29T05:15:40;15.68;;;7.10;;
6626;SDS011;3349;49.830;8.748;2022-10-29T05:18:08;13.73;;;7.20;;
6626;SDS011;3349;49.830;8.748;2022-10-29T05:20:35;17.63;;;7.20;;
6626;SDS011;3349;49.830;8.748;2022-10-29T05:23:02;16.23;;;7.15;;
6626;SDS011;3349;49.830;8.748;2022-10-29T05:25:31;18.00;;;6.82;;
6626;SDS011;3349;49.830;8.748;2022-10-29T05:28:04;17.27;;;7.85;;
6626;SDS011;3349;49.830;8.748;2022-10-29T05:30:32;19.27;;;7.53;;
6626;SDS011;3349;49.830;8.748;2022-10-29T05:33:00;12.10;;;6.72;;
6626;SDS011;3349;49.830;8.748;2022-10-29T05:35:27;23.35;;;8.07;;
6626;SDS011;3349;49.830;8.748;2022-10-29T05:37:54;15.90;;;7.82;;
6626;SDS011;3349;49.830;8.748;2022-10-29T05:40:22;18.70;;;8.43;;
6626;SDS011;3349;49.830;8.748;2022-10-29T05:42:49;16.05;;;7.35;;
6626;SDS011;3349;49.830;8.748;2022-10-29T05:45:18;14.45;;;7.65;;
6626;SDS011;3349;49.830;8.748;2022-10-29T05:47:44;17.02;;;7.57;;
6626;SDS011;3349;49.830;8.748;2022-10-29T05:50:12;17.67;;;8.00;;
6626;SDS011;3349;49.830;8.748;2022-10-29T05:52:39;13.70;;;7.53;;
6626;SDS011;3349;49.830;8.748;2022-10-29T05:55:06;11.15;;;7.00;;
6626;SDS011;3349;49.830;8.748;2022-10-29T05:57:33;19.67;;;7.75;;
6626;SDS011;3349;49.830;8.748;2022-10-29T06:00:00;14.15;;;7.82;;
6626;SDS011;3349;49.830;8.748;2022-10-29T06:02:28;19.45;;;8.13;;
6626;SDS011;3349;49.830;8.748;2022-10-29T06:04:54;15.40;;;7.00;;
6626;SDS011;3349;49.830;8.748;2022-10-29T06:07:21;15.95;;;7.80;;
6626;SDS011;3349;49.830;8.748;2022-10-29T06:09:48;18.67;;;8.25;;
6626;SDS011;3349;49.830;8.748;2022-10-29T06:12:14;12.23;;;7.00;;
6626;SDS011;3349;49.830;8.748;2022-10-29T06:14:41;13.57;;;8.20;;
6626;SDS011;3349;49.830;8.748;2022-10-29T06:17:08;13.57;;;7.35;;
6626;SDS011;3349;49.830;8.748;2022-10-29T06:19:36;15.93;;;9.15;;
6626;SDS011;3349;49.830;8.748;2022-10-29T06:22:03;22.63;;;11.38;;
6626;SDS011;3349;49.830;8.748;2022-10-29T06:24:30;21.35;;;12.88;;
6626;SDS011;3349;49.830;8.748;2022-10-29T06:26:56;20.35;;;12.43;;
6626;SDS011;3349;49.830;8.748;2022-10-29T06:29:23;20.55;;;11.07;;
6626;SDS011;3349;49.830;8.748;2022-10-29T06:31:49;19.65;;;10.30;;
6626;SDS011;3349;49.830;8.748;2022-10-29T06:34:16;17.77;;;9.90;;
6626;SDS011;3349;49.830;8.748;2022-10-29T06:36:44;19.90;;;9.18;;
6626;SDS011;3349;49.830;8.748;2022-10-29T06:39:11;15.32;;;9.13;;
6626;SDS011;3349;49.830;8.748;2022-10-29T06:41:38;15.02;;;7.97;;
6626;SDS011;3349;49.830;8.748;2022-10-29T06:44:04;14.30;;;9.00;;
6626;SDS011;3349;49.830;8.748;2022-10-29T06:46:31;19.00;;;7.82;;
6626;SDS011;3349;49.830;8.748;2022-10-29T06:48:59;16.90;;;8.25;;
6626;SDS011;3349;49.830;8.748;2022-10-29T06:51:26;14.20;;;7.47;;
6626;SDS011;3349;49.830;8.748;2022-10-29T06:53:54;19.25;;;8.35;;
6626;SDS011;3349;49.830;8.748;2022-10-29T06:56:21;16.52;;;8.70;;
6626;SDS011;3349;49.830;8.748;2022-10-29T06:58:48;19.45;;;8.65;;
6626;SDS011;3349;49.830;8.748;2022-10-29T07:01:15;14.40;;;9.07;;
6626;SDS011;3349;49.830;8.748;2022-10-29T07:03:41;14.13;;;8.90;;
6626;SDS011;3349;49.830;8.748;2022-10-29T07:06:08;16.20;;;8.73;;
6626;SDS011;3349;49.830;8.748;2022-10-29T07:08:35;15.75;;;8.95;;
6626;SDS011;3349;49.830;8.748;2022-10-29T07:11:03;13.85;;;8.15;;
6626;SDS011;3349;49.830;8.748;2022-10-29T07:13:31;16.15;;;7.97;;
6626;SDS011;3349;49.830;8.748;2022-10-29T07:15:57;16.23;;;8.40;;
6626;SDS011;3349;49.830;8.748;2022-10-29T07:18:24;30.25;;;8.73;;
6626;SDS011;3349;49.830;8.748;2022-10-29T07:20:51;30.83;;;9.20;;
6626;SDS011;3349;49.830;8.748;2022-10-29T07:23:17;31.10;;;9.93;;
6626;SDS011;3349;49.830;8.748;2022-10-29T07:25:44;38.53;;;9.57;;
6626;SDS011;3349;49.830;8.748;2022-10-29T07:28:13;46.63;;;12.65;;
6626;SDS011;3349;49.830;8.748;2022-10-29T07:30:41;46.83;;;12.20;;
6626;SDS011;3349;49.830;8.748;2022-10-29T07:33:09;45.70;;;11.63;;
6626;SDS011;3349;49.830;8.748;2022-10-29T07:35:36;38.80;;;12.07;;
6626;SDS011;3349;49.830;8.748;2022-10-29T07:38:04;67.32;;;14.75;;
6626;SDS011;3349;49.830;8.748;2022-10-29T07:40:31;66.45;;;14.50;;
6626;SDS011;3349;49.830;8.748;2022-10-29T07:42:58;77.47;;;17.02;;
6626;SDS011;3349;49.830;8.748;2022-10-29T07:45:26;52.63;;;13.10;;
6626;SDS011;3349;49.830;8.748;2022-10-29T07:47:59;56.63;;;13.20;;
6626;SDS011;3349;49.830;8.748;2022-10-29T07:50:27;38.00;;;11.93;;
6626;SDS011;3349;49.830;8.748;2022-10-29T07:52:54;24.10;;;10.82;;
6626;SDS011;3349;49.830;8.748;2022-10-29T07:55:21;38.35;;;11.02;;
6626;SDS011;3349;49.830;8.748;2022-10-29T07:57:53;52.08;;;12.45;;
6626;SDS011;3349;49.830;8.748;2022-10-29T08:00:23;30.92;;;11.07;;
6626;SDS011;3349;49.830;8.748;2022-10-29T08:02:52;34.80;;;10.30;;
6626;SDS011;3349;49.830;8.748;2022-10-29T08:05:19;23.25;;;9.70;;
6626;SDS011;3349;49.830;8.748;2022-10-29T08:07:46;19.40;;;8.73;;
6626;SDS011;3349;49.830;8.748;2022-10-29T08:10:13;19.60;;;8.98;;
6626;SDS011;3349;49.830;8.748;2022-10-29T08:12:46;15.50;;;8.77;;
6626;SDS011;3349;49.830;8.748;2022-10-29T08:15:14;19.77;;;8.57;;
6626;SDS011;3349;49.830;8.748;2022-10-29T08:17:41;18.65;;;8.60;;
6626;SDS011;3349;49.830;8.748;2022-10-29T08:20:09;19.23;;;9.07;;
6626;SDS011;3349;49.830;8.748;2022-10-29T08:22:37;44.28;;;12.05;;
6626;SDS011;3349;49.830;8.748;2022-10-29T08:25:04;40.78;;;12.50;;
6626;SDS011;3349;49.830;8.748;2022-10-29T08:27:31;68.40;;;15.73;;
6626;SDS011;3349;49.830;8.748;2022-10-29T08:29:58;90.18;;;16.73;;
6626;SDS011;3349;49.830;8.748;2022-10-29T08:32:24;131.75;;;19.65;;
6626;SDS011;3349;49.830;8.748;2022-10-29T08:34:51;85.32;;;16.60;;
6626;SDS011;3349;49.830;8.748;2022-10-29T08:37:19;53.28;;;13.48;;
6626;SDS011;3349;49.830;8.748;2022-10-29T08:39:46;39.58;;;12.43;;
6626;SDS011;3349;49.830;8.748;2022-10-29T08:42:14;25.83;;;10.15;;
6626;SDS011;3349;49.830;8.748;2022-10-29T08:44:52;23.60;;;9.55;;
6626;SDS011;3349;49.830;8.748;2022-10-29T08:47:27;23.27;;;8.73;;
6626;SDS011;3349;49.830;8.748;2022-10-29T08:50:01;26.20;;;9.27;;
6626;SDS011;3349;49.830;8.748;2022-10-29T08:52:34;23.42;;;8.63;;
6626;SDS011;3349;49.830;8.748;2022-10-29T08:55:05;18.55;;;8.18;;
6626;SDS011;3349;49.830;8.748;2022-10-29T08:57:39;14.20;;;7.28;;
6626;SDS011;3349;49.830;8.748;2022-10-29T09:00:13;18.52;;;7.85;;
6626;SDS011;3349;49.830;8.748;2022-10-29T09:02:40;19.33;;;7.38;;
6626;SDS011;3349;49.830;8.748;2022-10-29T09:05:10;18.55;;;7.57;;
6626;SDS011;3349;49.830;8.748;2022-10-29T09:07:49;24.77;;;8.30;;
6626;SDS011;3349;49.830;8.748;2022-10-29T09:10:35;29.35;;;8.85;;
6626;SDS011;3349;49.830;8.748;2022-10-29T09:13:11;19.10;;;8.75;;
6626;SDS011;3349;49.830;8.748;2022-10-29T09:16:05;14.98;;;9.15;;
6626;SDS011;3349;49.830;8.748;2022-10-29T09:18:50;17.00;;;8.30;;
6626;SDS011;3349;49.830;8.748;2022-10-29T09:21:42;41.63;;;9.13;;
6626;SDS011;3349;49.830;8.748;2022-10-29T09:24:18;22.67;;;8.55;;
6626;SDS011;3349;49.830;8.748;2022-10-29T09:26:56;16.73;;;7.90;;
6626;SDS011;3349;49.830;8.748;2022-10-29T09:29:30;36.95;;;7.90;;
6626;SDS011;3349;49.830;8.748;2022-10-29T09:32:13;31.13;;;7.82;;
6626;SDS011;3349;49.830;8.748;2022-10-29T09:34:45;41.58;;;8.68;;
6626;SDS011;3349;49.830;8.748;2022-10-29T09:37:15;33.35;;;8.30;;
6626;SDS011;3349;49.830;8.748;2022-10-29T09:39:45;27.20;;;8.55;;
6626;SDS011;3349;49.830;8.748;2022-10-29T09:42:13;21.33;;;7.75;;
6626;SDS011;3349;49.830;8.748;2022-10-29T09:44:45;23.35;;;8.13;;
6626;SDS011;3349;49.830;8.748;2022-10-29T09:47:17;23.27;;;7.90;;
6626;SDS011;3349;49.830;8.748;2022-10-29T09:49:56;26.05;;;7.85;;
6626;SDS011;3349;49.830;8.748;2022-10-29T09:52:29;68.28;;;10.07;;
6626;SDS011;3349;49.830;8.748;2022-10-29T09:55:00;82.90;;;11.02;;
6626;SDS011;3349;49.830;8.748;2022-10-29T09:57:30;61.75;;;9.82;;
6626;SDS011;3349;49.830;8.748;2022-10-29T10:00:00;63.30;;;11.65;;
6626;SDS011;3349;49.830;8.748;2022-10-29T10:02:30;54.03;;;11.93;;
6626;SDS011;3349;49.830;8.748;2022-10-29T10:05:01;33.53;;;14.15;;
6626;SDS011;3349;49.830;8.748;2022-10-29T10:07:30;35.97;;;18.30;;
6626;SDS011;3349;49.830;8.748;2022-10-29T10:09:57;33.53;;;14.57;;
6626;SDS011;3349;49.830;8.748;2022-10-29T10:12:27;29.35;;;11.90;;
6626;SDS011;3349;49.830;8.748;2022-10-29T10:15:16;21.48;;;11.15;;
6626;SDS011;3349;49.830;8.748;2022-10-29T10:17:55;20.67;;;11.05;;
6626;SDS011;3349;49.830;8.748;2022-10-29T10:20:24;20.80;;;9.93;;
6626;SDS011;3349;49.830;8.748;2022-10-29T10:22:57;18.70;;;8.50;;
6626;SDS011;3349;49.830;8.748;2022-10-29T10:25:32;17.73;;;8.80;;
6626;SDS011;3349;49.830;8.748;2022-10-29T10:28:09;16.13;;;7.70;;
6626;SDS011;3349;49.830;8.748;2022-10-29T10:30:42;18.20;;;9.55;;
6626;SDS011;3349;49.830;8.748;2022-10-29T10:33:10;19.25;;;8.55;;
6626;SDS011;3349;49.830;8.748;2022-10-29T10:35:47;17.17;;;7.53;;
6626;SDS011;3349;49.830;8.748;2022-10-29T10:38:14;15.20;;;7.05;;
6626;SDS011;3349;49.830;8.748;2022-10-29T10:40:41;15.73;;;7.00;;
6626;SDS011;3349;49.830;8.748;2022-10-29T10:43:13;10.00;;;7.13;;
6626;SDS011;3349;49.830;8.748;2022-10-29T10:45:50;14.90;;;7.57;;
6626;SDS011;3349;49.830;8.748;2022-10-29T10:48:20;13.52;;;7.03;;
6626;SDS011;3349;49.830;8.748;2022-10-29T10:50:49;14.77;;;7.25;;
6626;SDS011;3349;49.830;8.748;2022-10-29T10:53:17;20.48;;;6.90;;
6626;SDS011;3349;49.830;8.748;2022-10-29T10:55:46;16.20;;;6.90;;
6626;SDS011;3349;49.830;8.748;2022-10-29T10:58:18;16.63;;;7.55;;
6626;SDS011;3349;49.830;8.748;2022-10-29T11:00:50;10.93;;;6.50;;
6626;SDS011;3349;49.830;8.748;2022-10-29T11:03:20;13.30;;;6.20;;
6626;SDS011;3349;49.830;8.748;2022-10-29T11:05:55;13.40;;;6.60;;
6626;SDS011;3349;49.830;8.748;2022-10-29T11:08:29;16.83;;;6.60;;
6626;SDS011;3349;49.830;8.748;2022-10-29T11:11:00;14.20;;;6.40;;
6626;SDS011;3349;49.830;8.748;2022-10-29T11:13:32;12.40;;;6.13;;
6626;SDS011;3349;49.830;8.748;2022-10-29T11:16:00;12.20;;;6.10;;
6626;SDS011;3349;49.830;8.748;2022-10-29T11:18:38;12.43;;;6.53;;
6626;SDS011;3349;49.830;8.748;2022-10-29T11:21:10;12.32;;;6.55;;
6626;SDS011;3349;49.830;8.748;2022-10-29T11:23:45;13.15;;;6.25;;
6626;SDS011;3349;49.830;8.748;2022-10-29T11:26:19;11.77;;;6.15;;
6626;SDS011;3349;49.830;8.748;2022-10-29T11:28:54;9.57;;;5.82;;
6626;SDS011;3349;49.830;8.748;2022-10-29T11:31:26;16.17;;;6.13;;
6626;SDS011;3349;49.830;8.748;2022-10-29T11:34:02;15.75;;;5.90;;
6626;SDS011;3349;49.830;8.748;2022-10-29T11:36:36;14.90;;;5.93;;
6626;SDS011;3349;49.830;8.748;2022-10-29T11:39:07;15.77;;;5.82;;
6626;SDS011;3349;49.830;8.748;2022-10-29T11:41:40;17.02;;;6.18;;
6626;SDS011;3349;49.830;8.748;2022-10-29T11:44:14;12.00;;;6.25;;
6626;SDS011;3349;49.830;8.748;2022-10-29T11:46:47;21.67;;;6.15;;
6626;SDS011;3349;49.830;8.748;2022-10-29T11:49:27;13.20;;;6.30;;
6626;SDS011;3349;49.830;8.748;2022-10-29T11:52:07;11.73;;;5.75;;
6626;SDS011;3349;49.830;8.748;2022-10-29T11:54:42;17.05;;;5.50;;
6626;SDS011;3349;49.830;8.748;2022-10-29T11:57:16;14.25;;;6.40;;
6626;SDS011;3349;49.830;8.748;2022-10-29T11:59:56;11.95;;;6.07;;
6626;SDS011;3349;49.830;8.748;2022-10-29T12:02:32;11.02;;;5.43;;
6626;SDS011;3349;49.830;8.748;2022-10-29T12:05:14;12.30;;;6.47;;
6626;SDS011;3349;49.830;8.748;2022-10-29T12:07:50;10.32;;;5.90;;
6626;SDS011;3349;49.830;8.748;2022-10-29T12:13:20;15.15;;;5.38;;
6626;SDS011;3349;49.830;8.748;2022-10-29T12:16:03;16.67;;;5.72;;
6626;SDS011;3349;49.830;8.748;2022-10-29T12:18:39;11.30;;;5.78;;
6626;SDS011;3349;49.830;8.748;2022-10-29T12:21:12;14.02;;;6.05;;
6626;SDS011;3349;49.830;8.748;2022-10-29T12:23:49;15.65;;;5.95;;
6626;SDS011;3349;49.830;8.748;2022-10-29T12:26:29;13.48;;;6.22;;
6626;SDS011;3349;49.830;8.748;2022-10-29T12:29:03;12.65;;;5.57;;
6626;SDS011;3349;49.830;8.748;2022-10-29T12:31:39;15.55;;;5.90;;
6626;SDS011;3349;49.830;8.748;2022-10-29T12:34:12;14.75;;;5.28;;
6626;SDS011;3349;49.830;8.748;2022-10-29T12:36:45;14.27;;;5.07;;
6626;SDS011;3349;49.830;8.748;2022-10-29T12:39:18;10.27;;;5.35;;
6626;SDS011;3349;49.830;8.748;2022-10-29T12:41:51;14.25;;;5.70;;
6626;SDS011;3349;49.830;8.748;2022-10-29T12:44:23;17.88;;;5.68;;
6626;SDS011;3349;49.830;8.748;2022-10-29T12:46:58;17.50;;;5.85;;
6626;SDS011;3349;49.830;8.748;2022-10-29T12:49:36;12.30;;;5.63;;
6626;SDS011;3349;49.830;8.748;2022-10-29T12:52:09;12.93;;;5.60;;
6626;SDS011;3349;49.830;8.748;2022-10-29T12:54:42;11.90;;;5.65;;
6626;SDS011;3349;49.830;8.748;2022-10-29T12:57:18;11.82;;;5.38;;
6626;SDS011;3349;49.830;8.748;2022-10-29T12:59:55;11.10;;;5.20;;
6626;SDS011;3349;49.830;8.748;2022-10-29T13:05:20;10.90;;;5.28;;
6626;SDS011;3349;49.830;8.748;2022-10-29T13:10:58;15.80;;;5.53;;
6626;SDS011;3349;49.830;8.748;2022-10-29T13:16:24;14.00;;;5.50;;
6626;SDS011;3349;49.830;8.748;2022-10-29T13:19:05;12.43;;;5.88;;
6626;SDS011;3349;49.830;8.748;2022-10-29T13:22:08;17.83;;;5.88;;
6626;SDS011;3349;49.830;8.748;2022-10-29T13:28:08;14.95;;;5.93;;
6626;SDS011;3349;49.830;8.748;2022-10-29T13:34:09;10.00;;;5.95;;
6626;SDS011;3349;49.830;8.748;2022-10-29T13:36:36;16.98;;;5.68;;
6626;SDS011;3349;49.830;8.748;2022-10-29T13:39:15;15.98;;;6.45;;
6626;SDS011;3349;49.830;8.748;2022-10-29T13:41:47;17.27;;;5.68;;
6626;SDS011;3349;49.830;8.748;2022-10-29T13:44:16;14.63;;;6.20;;
6626;SDS011;3349;49.830;8.748;2022-10-29T13:46:46;13.50;;;5.82;;
6626;SDS011;3349;49.830;8.748;2022-10-29T13:49:19;13.63;;;6.25;;
6626;SDS011;3349;49.830;8.748;2022-10-29T13:51:49;14.63;;;6.97;;
6626;SDS011;3349;49.830;8.748;2022-10-29T13:57:17;18.48;;;7.07;;
6626;SDS011;3349;49.830;8.748;2022-10-29T13:59:49;13.80;;;7.15;;
6626;SDS011;3349;49.830;8.748;2022-10-29T14:02:23;14.25;;;6.93;;
6626;SDS011;3349;49.830;8.748;2022-10-29T14:04:55;18.77;;;7.80;;
6626;SDS011;3349;49.830;8.748;2022-10-29T14:07:27;12.32;;;7.18;;
6626;SDS011;3349;49.830;8.748;2022-10-29T14:10:01;19.63;;;7.70;;
6626;SDS011;3349;49.830;8.748;2022-10-29T14:12:37;13.50;;;7.88;;
6626;SDS011;3349;49.830;8.748;2022-10-29T14:15:05;17.10;;;7.82;;
6626;SDS011;3349;49.830;8.748;2022-10-29T14:17:33;18.70;;;7.68;;
6626;SDS011;3349;49.830;8.748;2022-10-29T14:20:00;15.40;;;7.95;;
6626;SDS011;3349;49.830;8.748;2022-10-29T14:22:28;18.42;;;8.07;;
6626;SDS011;3349;49.830;8.748;2022-10-29T14:25:01;15.90;;;7.07;;
6626;SDS011;3349;49.830;8.748;2022-10-29T14:27:45;15.02;;;7.60;;
6626;SDS011;3349;49.830;8.748;2022-10-29T14:30:13;15.38;;;7.85;;
6626;SDS011;3349;49.830;8.748;2022-10-29T14:32:44;15.75;;;8.10;;
6626;SDS011;3349;49.830;8.748;2022-10-29T14:35:14;18.85;;;8.20;;
6626;SDS011;3349;49.830;8.748;2022-10-29T14:37:41;21.05;;;7.70;;
6626;SDS011;3349;49.830;8.748;2022-10-29T14:40:14;20.08;;;7.57;;
6626;SDS011;3349;49.830;8.748;2022-10-29T14:42:45;15.15;;;7.38;;
6626;SDS011;3349;49.830;8.748;2022-10-29T14:45:17;12.88;;;7.50;;
6626;SDS011;3349;49.830;8.748;2022-10-29T14:47:47;17.83;;;7.72;;
6626;SDS011;3349;49.830;8.748;2022-10-29T14:50:17;15.05;;;7.68;;
6626;SDS011;3349;49.830;8.748;2022-10-29T14:52:47;13.73;;;7.97;;
6626;SDS011;3349;49.830;8.748;2022-10-29T14:55:19;17.35;;;8.50;;
6626;SDS011;3349;49.830;8.748;2022-10-29T14:57:49;16.10;;;7.55;;
6626;SDS011;3349;49.830;8.748;2022-10-29T15:00:24;14.00;;;7.05;;
6626;SDS011;3349;49.830;8.748;2022-10-29T15:02:54;21.80;;;8.07;;
6626;SDS011;3349;49.830;8.748;2022-10-29T15:05:22;17.25;;;7.28;;
6626;SDS011;3349;49.830;8.748;2022-10-29T15:07:50;17.92;;;7.63;;
6626;SDS011;3349;49.830;8.748;2022-10-29T15:10:29;16.92;;;7.97;;
6626;SDS011;3349;49.830;8.748;2022-10-29T15:12:56;15.90;;;7.63;;
6626;SDS011;3349;49.830;8.748;2022-10-29T15:15:24;23.33;;;8.65;;
6626;SDS011;3349;49.830;8.748;2022-10-29T15:17:54;15.90;;;7.85;;
6626;SDS011;3349;49.830;8.748;2022-10-29T15:20:25;20.23;;;9.10;;
6626;SDS011;3349;49.830;8.748;2022-10-29T15:22:56;20.30;;;8.80;;
6626;SDS011;3349;49.830;8.748;2022-10-29T15:25:26;16.60;;;8.50;;
6626;SDS011;3349;49.830;8.748;2022-10-29T15:27:57;18.70;;;9.10;;
6626;SDS011;3349;49.830;8.748;2022-10-29T15:30:29;17.70;;;8.52;;
6626;SDS011;3349;49.830;8.748;2022-10-29T15:32:58;22.77;;;8.48;;
6626;SDS011;3349;49.830;8.748;2022-10-29T15:35:26;20.58;;;9.50;;
6626;SDS011;3349;49.830;8.748;2022-10-29T15:37:54;17.77;;;9.15;;
6626;SDS011;3349;49.830;8.748;2022-10-29T15:40:21;14.50;;;8.48;;
6626;SDS011;3349;49.830;8.748;2022-10-29T15:42:49;16.00;;;8.20;;
6626;SDS011;3349;49.830;8.748;2022-10-29T15:45:19;22.48;;;8.40;;
6626;SDS011;3349;49.830;8.748;2022-10-29T15:47:48;15.35;;;8.45;;